sensor_id;sensor_type;location;lat;lon;timestamp;temperature;humidity
4293;DHT22;2160;51.172;6.808;2023-08-01T04:02:30;18.80;99.90
4293;DHT22;2160;51.172;6.808;2023-08-01T04:04:57;18.60;99.90
4293;DHT22;2160;51.172;6.808;2023-08-01T04:07:24;18.60;99.90
4293;DHT22;2160;51.172;6.808;2023-08-01T04:09:51;18.60;99.90
4293;DHT22;2160;51.172;6.808;2023-08-01T04:12:19;18.70;99.90
4293;DHT22;2160;51.172;6.808;2023-08-01T04:14:46;18.70;99.90
4293;DHT22;2160;51.172;6.808;2023-08-01T04:17:13;18.70;99.90
4293;DHT22;2160;51.172;6.808;2023-08-01T04:19:41;18.70;99.90
4293;DHT22;2160;51.172;6.808;2023-08-01T04:22:08;18.70;99.90
4293;DHT22;2160;51.172;6.808;2023-08-01T04:24:36;18.70;99.90
4293;DHT22;2160;51.172;6.808;2023-08-01T04:27:03;18.50;99.90
4293;DHT22;2160;51.172;6.808;2023-08-01T04:29:30;18.40;99.90
4293;DHT22;2160;51.172;6.808;2023-08-01T04:31:57;18.40;99.90
4293;DHT22;2160;51.172;6.808;2023-08-01T04:34:24;18.50;99.90
4293;DHT22;2160;51.172;6.808;2023-08-01T04:36:52;18.50;99.90
4293;DHT22;2160;51.172;6.808;2023-08-01T04:39:20;18.60;99.90
4293;DHT22;2160;51.172;6.808;2023-08-01T04:41:48;18.70;99.90
4293;DHT22;2160;51.172;6.808;2023-08-01T04:44:15;18.50;99.90
4293;DHT22;2160;51.172;6.808;2023-08-01T04:46:42;18.60;99.90
4293;DHT22;2160;51.172;6.808;2023-08-01T04:49:09;18.60;99.90
4293;DHT22;2160;51.172;6.808;2023-08-01T04:51:36;18.60;99.90
4293;DHT22;2160;51.172;6.808;2023-08-01T04:54:04;18.60;99.90
4293;DHT22;2160;51.172;6.808;2023-08-01T04:56:31;18.60;99.90
4293;DHT22;2160;51.172;6.808;2023-08-01T04:58:58;18.50;99.90
4293;DHT22;2160;51.172;6.808;2023-08-01T05:01:27;18.60;99.90
4293;DHT22;2160;51.172;6.808;2023-08-01T05:03:54;18.60;99.90
4293;DHT22;2160;51.172;6.808;2023-08-01T05:06:21;18.60;99.90
4293;DHT22;2160;51.172;6.808;2023-08-01T05:08:48;18.60;99.90
4293;DHT22;2160;51.172;6.808;2023-08-01T05:11:16;18.60;99.90
4293;DHT22;2160;51.172;6.808;2023-08-01T05:13:43;18.70;99.90
4293;DHT22;2160;51.172;6.808;2023-08-01T05:16:10;18.80;99.90
4293;DHT22;2160;51.172;6.808;2023-08-01T05:18:37;18.70;99.90
4293;DHT22;2160;51.172;6.808;2023-08-01T05:21:04;18.70;99.90
4293;DHT22;2160;51.172;6.808;2023-08-01T05:23:31;18.60;99.90
4293;DHT22;2160;51.172;6.808;2023-08-01T05:25:58;18.70;99.90
4293;DHT22;2160;51.172;6.808;2023-08-01T05:28:26;18.80;99.90
4293;DHT22;2160;51.172;6.808;2023-08-01T05:30:53;18.70;99.90
4293;DHT22;2160;51.172;6.808;2023-08-01T05:33:20;18.70;99.90
4293;DHT22;2160;51.172;6.808;2023-08-01T05:35:48;18.70;99.90
4293;DHT22;2160;51.172;6.808;2023-08-01T05:38:16;18.70;99.90
4293;DHT22;2160;51.172;6.808;2023-08-01T05:40:43;18.60;99.90
4293;DHT22;2160;51.172;6.808;2023-08-01T05:43:10;18.60;99.90
4293;DHT22;2160;51.172;6.808;2023-08-01T05:45:38;18.60;99.90
4293;DHT22;2160;51.172;6.808;2023-08-01T05:48:05;18.80;99.90
4293;DHT22;2160;51.172;6.808;2023-08-01T05:50:32;18.70;99.90
4293;DHT22;2160;51.172;6.808;2023-08-01T05:52:59;18.60;99.90
4293;DHT22;2160;51.172;6.808;2023-08-01T05:55:26;18.60;99.90
4293;DHT22;2160;51.172;6.808;2023-08-01T05:57:53;18.50;99.90
4293;DHT22;2160;51.172;6.808;2023-08-01T06:00:20;18.50;99.90
4293;DHT22;2160;51.172;6.808;2023-08-01T06:02:49;18.60;99.90
4293;DHT22;2160;51.172;6.808;2023-08-01T06:05:16;18.60;99.90
4293;DHT22;2160;51.172;6.808;2023-08-01T06:07:43;18.70;99.90
4293;DHT22;2160;51.172;6.808;2023-08-01T06:10:10;18.60;99.90
4293;DHT22;2160;51.172;6.808;2023-08-01T06:12:37;18.50;99.90
4293;DHT22;2160;51.172;6.808;2023-08-01T06:15:05;18.50;99.90
4293;DHT22;2160;51.172;6.808;2023-08-01T06:17:32;18.60;99.90
4293;DHT22;2160;51.172;6.808;2023-08-01T06:20:00;18.70;99.90
4293;DHT22;2160;51.172;6.808;2023-08-01T06:22:29;18.80;99.90
4293;DHT22;2160;51.172;6.808;2023-08-01T06:24:56;19.00;99.90
4293;DHT22;2160;51.172;6.808;2023-08-01T06:27:24;19.00;99.90
4293;DHT22;2160;51.172;6.808;2023-08-01T06:29:51;19.10;99.90
4293;DHT22;2160;51.172;6.808;2023-08-01T06:32:18;18.90;99.90
4293;DHT22;2160;51.172;6.808;2023-08-01T06:34:45;18.90;99.90
4293;DHT22;2160;51.172;6.808;2023-08-01T06:37:13;18.70;99.90
4293;DHT22;2160;51.172;6.808;2023-08-01T06:39:40;18.80;99.90
4293;DHT22;2160;51.172;6.808;2023-08-01T06:42:07;18.90;99.90
4293;DHT22;2160;51.172;6.808;2023-08-01T06:44:34;19.20;99.90
4293;DHT22;2160;51.172;6.808;2023-08-01T06:47:01;19.30;99.90
4293;DHT22;2160;51.172;6.808;2023-08-01T06:49:28;19.40;99.90
4293;DHT22;2160;51.172;6.808;2023-08-01T06:51:55;19.30;99.90
4293;DHT22;2160;51.172;6.808;2023-08-01T06:54:23;19.40;99.90
4293;DHT22;2160;51.172;6.808;2023-08-01T06:56:50;19.60;99.90
4293;DHT22;2160;51.172;6.808;2023-08-01T06:59:17;19.70;99.90
4293;DHT22;2160;51.172;6.808;2023-08-01T07:01:44;19.60;99.90
4293;DHT22;2160;51.172;6.808;2023-08-01T07:04:12;19.60;99.90
4293;DHT22;2160;51.172;6.808;2023-08-01T07:06:39;19.40;99.90
4293;DHT22;2160;51.172;6.808;2023-08-01T07:09:06;19.40;99.90
4293;DHT22;2160;51.172;6.808;2023-08-01T07:11:35;19.40;99.90
4293;DHT22;2160;51.172;6.808;2023-08-01T07:14:02;19.40;99.90
4293;DHT22;2160;51.172;6.808;2023-08-01T07:16:29;19.60;99.90
4293;DHT22;2160;51.172;6.808;2023-08-01T07:18:58;19.70;99.90
4293;DHT22;2160;51.172;6.808;2023-08-01T07:21:24;19.90;99.90
4293;DHT22;2160;51.172;6.808;2023-08-01T07:23:51;20.10;99.90
4293;DHT22;2160;51.172;6.808;2023-08-01T07:26:18;20.00;99.90
4293;DHT22;2160;51.172;6.808;2023-08-01T07:28:47;20.20;99.90
4293;DHT22;2160;51.172;6.808;2023-08-01T07:31:14;20.00;99.90
4293;DHT22;2160;51.172;6.808;2023-08-01T07:33:41;20.00;99.90
4293;DHT22;2160;51.172;6.808;2023-08-01T07:36:08;20.00;99.90
4293;DHT22;2160;51.172;6.808;2023-08-01T07:38:35;19.80;99.90
4293;DHT22;2160;51.172;6.808;2023-08-01T07:41:02;19.50;99.90
4293;DHT22;2160;51.172;6.808;2023-08-01T07:43:30;19.50;99.90
4293;DHT22;2160;51.172;6.808;2023-08-01T07:45:59;19.60;99.90
4293;DHT22;2160;51.172;6.808;2023-08-01T07:48:26;19.60;99.90
4293;DHT22;2160;51.172;6.808;2023-08-01T07:50:53;19.80;99.90
4293;DHT22;2160;51.172;6.808;2023-08-01T07:53:20;19.90;99.90
4293;DHT22;2160;51.172;6.808;2023-08-01T07:55:47;20.10;99.90
4293;DHT22;2160;51.172;6.808;2023-08-01T07:58:16;20.20;99.90
4293;DHT22;2160;51.172;6.808;2023-08-01T08:00:43;20.10;99.90
4293;DHT22;2160;51.172;6.808;2023-08-01T08:03:11;20.20;99.90
4293;DHT22;2160;51.172;6.808;2023-08-01T08:05:38;20.20;99.90
4293;DHT22;2160;51.172;6.808;2023-08-01T08:08:06;20.20;99.90
4293;DHT22;2160;51.172;6.808;2023-08-01T08:10:33;20.30;99.90
4293;DHT22;2160;51.172;6.808;2023-08-01T08:13:00;20.60;99.90
4293;DHT22;2160;51.172;6.808;2023-08-01T08:15:27;20.40;99.90
4293;DHT22;2160;51.172;6.808;2023-08-01T08:17:59;20.10;99.90
4293;DHT22;2160;51.172;6.808;2023-08-01T08:20:28;20.20;99.90
4293;DHT22;2160;51.172;6.808;2023-08-01T08:22:54;20.30;99.90
4293;DHT22;2160;51.172;6.808;2023-08-01T08:25:21;20.50;99.90
4293;DHT22;2160;51.172;6.808;2023-08-01T08:27:49;20.40;99.90
4293;DHT22;2160;51.172;6.808;2023-08-01T08:30:16;20.50;99.90
4293;DHT22;2160;51.172;6.808;2023-08-01T08:32:43;20.60;99.90
4293;DHT22;2160;51.172;6.808;2023-08-01T08:35:10;20.70;99.90
4293;DHT22;2160;51.172;6.808;2023-08-01T08:37:38;20.70;99.90
4293;DHT22;2160;51.172;6.808;2023-08-01T08:40:06;20.80;99.90
4293;DHT22;2160;51.172;6.808;2023-08-01T08:42:34;20.90;99.90
4293;DHT22;2160;51.172;6.808;2023-08-01T08:45:02;21.00;99.90
4293;DHT22;2160;51.172;6.808;2023-08-01T08:47:32;20.80;99.90
4293;DHT22;2160;51.172;6.808;2023-08-01T08:50:02;20.70;99.90
4293;DHT22;2160;51.172;6.808;2023-08-01T08:52:29;20.70;99.90
4293;DHT22;2160;51.172;6.808;2023-08-01T08:54:58;20.90;99.90
4293;DHT22;2160;51.172;6.808;2023-08-01T08:57:25;21.00;99.90
4293;DHT22;2160;51.172;6.808;2023-08-01T08:59:54;20.90;99.90
4293;DHT22;2160;51.172;6.808;2023-08-01T09:02:23;20.70;99.90
4293;DHT22;2160;51.172;6.808;2023-08-01T09:04:50;20.80;99.90
4293;DHT22;2160;51.172;6.808;2023-08-01T09:07:20;20.70;99.90
4293;DHT22;2160;51.172;6.808;2023-08-01T09:09:48;20.80;99.90
4293;DHT22;2160;51.172;6.808;2023-08-01T09:12:17;21.00;99.90
4293;DHT22;2160;51.172;6.808;2023-08-01T09:14:45;21.10;99.90
4293;DHT22;2160;51.172;6.808;2023-08-01T09:17:12;21.10;99.90
4293;DHT22;2160;51.172;6.808;2023-08-01T09:19:42;20.90;99.90
4293;DHT22;2160;51.172;6.808;2023-08-01T09:22:12;20.80;99.90
4293;DHT22;2160;51.172;6.808;2023-08-01T09:24:49;20.80;99.90
4293;DHT22;2160;51.172;6.808;2023-08-01T09:27:18;21.10;99.90
4293;DHT22;2160;51.172;6.808;2023-08-01T09:29:46;21.40;99.90
4293;DHT22;2160;51.172;6.808;2023-08-01T09:32:14;21.70;99.90
4293;DHT22;2160;51.172;6.808;2023-08-01T09:34:42;21.70;99.90
4293;DHT22;2160;51.172;6.808;2023-08-01T09:37:09;21.90;99.90
4293;DHT22;2160;51.172;6.808;2023-08-01T09:39:36;22.00;99.90
4293;DHT22;2160;51.172;6.808;2023-08-01T09:42:03;21.60;99.90
4293;DHT22;2160;51.172;6.808;2023-08-01T09:44:35;21.30;99.90
4293;DHT22;2160;51.172;6.808;2023-08-01T09:47:04;21.40;99.90
4293;DHT22;2160;51.172;6.808;2023-08-01T09:49:32;21.70;99.90
4293;DHT22;2160;51.172;6.808;2023-08-01T09:52:00;22.00;99.90
4293;DHT22;2160;51.172;6.808;2023-08-01T09:54:27;22.10;99.90
4293;DHT22;2160;51.172;6.808;2023-08-01T09:56:54;22.30;99.90
4293;DHT22;2160;51.172;6.808;2023-08-01T09:59:23;22.30;99.90
4293;DHT22;2160;51.172;6.808;2023-08-01T10:01:53;22.10;99.90
4293;DHT22;2160;51.172;6.808;2023-08-01T10:04:23;22.30;99.90
4293;DHT22;2160;51.172;6.808;2023-08-01T10:06:54;22.30;99.90
4293;DHT22;2160;51.172;6.808;2023-08-01T10:09:24;22.20;99.90
4293;DHT22;2160;51.172;6.808;2023-08-01T10:11:51;22.30;99.90
4293;DHT22;2160;51.172;6.808;2023-08-01T10:14:19;22.50;99.90
4293;DHT22;2160;51.172;6.808;2023-08-01T10:16:47;22.70;99.90
4293;DHT22;2160;51.172;6.808;2023-08-01T10:19:15;22.50;99.90
4293;DHT22;2160;51.172;6.808;2023-08-01T10:21:44;22.50;99.90
4293;DHT22;2160;51.172;6.808;2023-08-01T10:24:11;22.50;99.90
4293;DHT22;2160;51.172;6.808;2023-08-01T10:26:40;22.40;99.90
4293;DHT22;2160;51.172;6.808;2023-08-01T10:29:07;22.40;99.90
4293;DHT22;2160;51.172;6.808;2023-08-01T10:31:34;22.40;99.90
4293;DHT22;2160;51.172;6.808;2023-08-01T10:34:05;22.50;99.90
4293;DHT22;2160;51.172;6.808;2023-08-01T10:36:34;22.50;99.90
4293;DHT22;2160;51.172;6.808;2023-08-01T10:39:02;22.60;99.90
4293;DHT22;2160;51.172;6.808;2023-08-01T10:41:30;22.30;99.90
4293;DHT22;2160;51.172;6.808;2023-08-01T10:44:08;22.50;99.90
4293;DHT22;2160;51.172;6.808;2023-08-01T10:46:46;22.80;99.90
4293;DHT22;2160;51.172;6.808;2023-08-01T10:49:13;22.60;99.90
4293;DHT22;2160;51.172;6.808;2023-08-01T10:51:42;22.90;99.90
4293;DHT22;2160;51.172;6.808;2023-08-01T10:54:19;23.00;99.90
4293;DHT22;2160;51.172;6.808;2023-08-01T10:56:48;22.90;99.90
4293;DHT22;2160;51.172;6.808;2023-08-01T10:59:15;23.20;99.90
4293;DHT22;2160;51.172;6.808;2023-08-01T11:01:50;23.30;99.90
4293;DHT22;2160;51.172;6.808;2023-08-01T11:04:19;23.10;99.90
4293;DHT22;2160;51.172;6.808;2023-08-01T11:06:49;23.20;99.90
4293;DHT22;2160;51.172;6.808;2023-08-01T11:09:18;23.10;99.90
4293;DHT22;2160;51.172;6.808;2023-08-01T11:11:45;23.30;99.90
4293;DHT22;2160;51.172;6.808;2023-08-01T11:14:14;23.50;99.90
4293;DHT22;2160;51.172;6.808;2023-08-01T11:16:42;23.50;99.90
4293;DHT22;2160;51.172;6.808;2023-08-01T11:19:18;23.30;99.90
4293;DHT22;2160;51.172;6.808;2023-08-01T11:21:47;23.50;99.90
4293;DHT22;2160;51.172;6.808;2023-08-01T11:24:15;23.50;99.90
4293;DHT22;2160;51.172;6.808;2023-08-01T11:26:42;23.60;99.90
4293;DHT22;2160;51.172;6.808;2023-08-01T11:29:10;23.60;99.90
4293;DHT22;2160;51.172;6.808;2023-08-01T11:31:37;23.80;99.90
4293;DHT22;2160;51.172;6.808;2023-08-01T11:34:04;23.50;99.90
4293;DHT22;2160;51.172;6.808;2023-08-01T11:36:33;23.30;99.90
4293;DHT22;2160;51.172;6.808;2023-08-01T11:39:02;23.00;99.90
4293;DHT22;2160;51.172;6.808;2023-08-01T11:41:29;21.10;99.90
4293;DHT22;2160;51.172;6.808;2023-08-01T11:44:02;20.00;99.90
4293;DHT22;2160;51.172;6.808;2023-08-01T11:46:31;19.10;99.90
4293;DHT22;2160;51.172;6.808;2023-08-01T11:48:59;18.60;99.90
4293;DHT22;2160;51.172;6.808;2023-08-01T11:51:26;18.40;99.90
4293;DHT22;2160;51.172;6.808;2023-08-01T11:54:01;18.20;99.90
4293;DHT22;2160;51.172;6.808;2023-08-01T11:56:29;18.30;99.90
4293;DHT22;2160;51.172;6.808;2023-08-01T11:58:56;18.30;99.90
4293;DHT22;2160;51.172;6.808;2023-08-01T12:01:24;18.40;99.90
4293;DHT22;2160;51.172;6.808;2023-08-01T12:03:52;18.70;99.90
4293;DHT22;2160;51.172;6.808;2023-08-01T12:06:21;19.00;99.90
4293;DHT22;2160;51.172;6.808;2023-08-01T12:08:50;19.40;99.90
4293;DHT22;2160;51.172;6.808;2023-08-01T12:11:20;19.70;99.90
4293;DHT22;2160;51.172;6.808;2023-08-01T12:13:47;20.00;99.90
4293;DHT22;2160;51.172;6.808;2023-08-01T12:16:14;20.50;99.90
4293;DHT22;2160;51.172;6.808;2023-08-01T12:18:45;20.60;99.90
4293;DHT22;2160;51.172;6.808;2023-08-01T12:21:13;20.40;99.90
4293;DHT22;2160;51.172;6.808;2023-08-01T12:23:40;20.10;99.90
4293;DHT22;2160;51.172;6.808;2023-08-01T12:26:08;19.50;99.90
4293;DHT22;2160;51.172;6.808;2023-08-01T12:28:36;19.20;99.90
4293;DHT22;2160;51.172;6.808;2023-08-01T12:31:03;19.20;99.90
4293;DHT22;2160;51.172;6.808;2023-08-01T12:33:31;19.50;99.90
4293;DHT22;2160;51.172;6.808;2023-08-01T12:35:58;20.00;99.90
4293;DHT22;2160;51.172;6.808;2023-08-01T12:38:26;20.60;99.90
4293;DHT22;2160;51.172;6.808;2023-08-01T12:40:53;21.00;99.90
4293;DHT22;2160;51.172;6.808;2023-08-01T12:43:20;21.40;99.90
4293;DHT22;2160;51.172;6.808;2023-08-01T12:45:49;22.00;99.90
4293;DHT22;2160;51.172;6.808;2023-08-01T12:48:16;22.30;99.90
4293;DHT22;2160;51.172;6.808;2023-08-01T12:50:44;22.20;99.90
4293;DHT22;2160;51.172;6.808;2023-08-01T12:53:12;22.20;99.90
4293;DHT22;2160;51.172;6.808;2023-08-01T12:55:39;22.50;99.90
4293;DHT22;2160;51.172;6.808;2023-08-01T12:58:08;22.50;99.90
4293;DHT22;2160;51.172;6.808;2023-08-01T13:00:35;22.30;99.90
4293;DHT22;2160;51.172;6.808;2023-08-01T13:03:04;21.90;99.90
4293;DHT22;2160;51.172;6.808;2023-08-01T13:05:34;21.90;99.90
4293;DHT22;2160;51.172;6.808;2023-08-01T13:08:01;21.70;99.90
4293;DHT22;2160;51.172;6.808;2023-08-01T13:10:29;21.60;99.90
4293;DHT22;2160;51.172;6.808;2023-08-01T13:12:57;21.70;99.90
4293;DHT22;2160;51.172;6.808;2023-08-01T13:15:24;21.80;99.90
4293;DHT22;2160;51.172;6.808;2023-08-01T13:17:51;22.00;99.90
4293;DHT22;2160;51.172;6.808;2023-08-01T13:20:19;22.60;99.90
4293;DHT22;2160;51.172;6.808;2023-08-01T13:22:49;22.50;99.90
4293;DHT22;2160;51.172;6.808;2023-08-01T13:25:17;22.50;99.90
4293;DHT22;2160;51.172;6.808;2023-08-01T13:27:44;22.40;99.90
4293;DHT22;2160;51.172;6.808;2023-08-01T13:30:11;22.20;99.90
4293;DHT22;2160;51.172;6.808;2023-08-01T13:32:40;22.60;99.90
4293;DHT22;2160;51.172;6.808;2023-08-01T13:35:07;22.80;99.90
4293;DHT22;2160;51.172;6.808;2023-08-01T13:37:35;23.70;99.90
4293;DHT22;2160;51.172;6.808;2023-08-01T13:40:03;23.90;99.90
4293;DHT22;2160;51.172;6.808;2023-08-01T13:42:31;23.90;99.90
4293;DHT22;2160;51.172;6.808;2023-08-01T13:44:59;23.50;99.90
4293;DHT22;2160;51.172;6.808;2023-08-01T13:47:26;23.30;99.90
4293;DHT22;2160;51.172;6.808;2023-08-01T13:49:53;22.90;99.90
4293;DHT22;2160;51.172;6.808;2023-08-01T13:52:20;22.60;99.90
4293;DHT22;2160;51.172;6.808;2023-08-01T13:54:48;22.40;99.90
4293;DHT22;2160;51.172;6.808;2023-08-01T13:57:15;22.50;99.90
4293;DHT22;2160;51.172;6.808;2023-08-01T13:59:42;23.30;99.90
4293;DHT22;2160;51.172;6.808;2023-08-01T14:02:10;25.00;99.90
4293;DHT22;2160;51.172;6.808;2023-08-01T14:04:37;25.80;99.90
4293;DHT22;2160;51.172;6.808;2023-08-01T14:07:04;27.10;99.90
4293;DHT22;2160;51.172;6.808;2023-08-01T14:09:31;28.30;99.90
4293;DHT22;2160;51.172;6.808;2023-08-01T14:11:59;29.50;99.90
4293;DHT22;2160;51.172;6.808;2023-08-01T14:14:27;30.50;99.90
4293;DHT22;2160;51.172;6.808;2023-08-01T14:16:54;31.20;96.60
4293;DHT22;2160;51.172;6.808;2023-08-01T14:19:21;31.50;91.40
4293;DHT22;2160;51.172;6.808;2023-08-01T14:21:48;30.50;88.30
4293;DHT22;2160;51.172;6.808;2023-08-01T14:24:15;29.50;90.70
4293;DHT22;2160;51.172;6.808;2023-08-01T14:26:42;28.10;90.80
4293;DHT22;2160;51.172;6.808;2023-08-01T14:29:11;26.80;92.80
4293;DHT22;2160;51.172;6.808;2023-08-01T14:31:38;26.20;96.70
4293;DHT22;2160;51.172;6.808;2023-08-01T14:34:04;26.20;97.50
4293;DHT22;2160;51.172;6.808;2023-08-01T14:36:31;26.80;96.30
4293;DHT22;2160;51.172;6.808;2023-08-01T14:38:58;27.50;95.40
4293;DHT22;2160;51.172;6.808;2023-08-01T14:41:25;28.60;94.00
4293;DHT22;2160;51.172;6.808;2023-08-01T14:43:52;29.90;91.60
4293;DHT22;2160;51.172;6.808;2023-08-01T14:46:21;30.80;86.80
4293;DHT22;2160;51.172;6.808;2023-08-01T14:48:48;31.20;81.40
4293;DHT22;2160;51.172;6.808;2023-08-01T14:51:15;31.60;76.20
4293;DHT22;2160;51.172;6.808;2023-08-01T14:53:42;32.70;72.60
4293;DHT22;2160;51.172;6.808;2023-08-01T14:56:09;33.20;66.70
4293;DHT22;2160;51.172;6.808;2023-08-01T14:58:37;32.80;60.90
4293;DHT22;2160;51.172;6.808;2023-08-01T15:01:05;32.40;60.50
4293;DHT22;2160;51.172;6.808;2023-08-01T15:03:33;33.10;60.20
4293;DHT22;2160;51.172;6.808;2023-08-01T15:06:05;33.20;58.40
4293;DHT22;2160;51.172;6.808;2023-08-01T15:08:32;31.60;57.90
4293;DHT22;2160;51.172;6.808;2023-08-01T15:11:03;31.40;58.10
4293;DHT22;2160;51.172;6.808;2023-08-01T15:13:31;31.80;55.70
4293;DHT22;2160;51.172;6.808;2023-08-01T15:15:58;32.40;55.80
4293;DHT22;2160;51.172;6.808;2023-08-01T15:18:25;33.00;54.50
4293;DHT22;2160;51.172;6.808;2023-08-01T15:20:54;33.40;52.70
4293;DHT22;2160;51.172;6.808;2023-08-01T15:23:21;33.70;52.40
4293;DHT22;2160;51.172;6.808;2023-08-01T15:25:52;33.30;51.70
4293;DHT22;2160;51.172;6.808;2023-08-01T15:28:19;32.10;51.00
4293;DHT22;2160;51.172;6.808;2023-08-01T15:30:46;30.20;52.90
4293;DHT22;2160;51.172;6.808;2023-08-01T15:33:14;28.50;57.00
4293;DHT22;2160;51.172;6.808;2023-08-01T15:35:42;27.30;60.80
4293;DHT22;2160;51.172;6.808;2023-08-01T15:38:11;26.30;66.80
4293;DHT22;2160;51.172;6.808;2023-08-01T15:40:37;25.70;70.70
4293;DHT22;2160;51.172;6.808;2023-08-01T15:43:05;25.40;75.60
4293;DHT22;2160;51.172;6.808;2023-08-01T15:45:32;27.70;74.80
4293;DHT22;2160;51.172;6.808;2023-08-01T15:47:59;28.50;65.00
4293;DHT22;2160;51.172;6.808;2023-08-01T15:50:26;27.60;66.00
4293;DHT22;2160;51.172;6.808;2023-08-01T15:52:53;28.10;68.10
4293;DHT22;2160;51.172;6.808;2023-08-01T15:55:21;28.20;66.40
4293;DHT22;2160;51.172;6.808;2023-08-01T15:57:49;28.30;68.20
4293;DHT22;2160;51.172;6.808;2023-08-01T16:00:16;28.50;63.50
4293;DHT22;2160;51.172;6.808;2023-08-01T16:02:44;28.30;64.90
4293;DHT22;2160;51.172;6.808;2023-08-01T16:05:11;29.20;63.90
4293;DHT22;2160;51.172;6.808;2023-08-01T16:07:38;28.70;62.20
4293;DHT22;2160;51.172;6.808;2023-08-01T16:10:05;29.10;65.20
4293;DHT22;2160;51.172;6.808;2023-08-01T16:12:33;29.30;60.00
4293;DHT22;2160;51.172;6.808;2023-08-01T16:15:00;28.00;61.80
4293;DHT22;2160;51.172;6.808;2023-08-01T16:17:27;27.10;65.70
4293;DHT22;2160;51.172;6.808;2023-08-01T16:19:54;26.50;69.00
4293;DHT22;2160;51.172;6.808;2023-08-01T16:22:21;25.80;71.80
4293;DHT22;2160;51.172;6.808;2023-08-01T16:24:48;25.30;71.40
4293;DHT22;2160;51.172;6.808;2023-08-01T16:27:15;25.10;76.10
4293;DHT22;2160;51.172;6.808;2023-08-01T16:29:44;25.10;77.90
4293;DHT22;2160;51.172;6.808;2023-08-01T16:32:11;25.00;77.30
4293;DHT22;2160;51.172;6.808;2023-08-01T16:34:37;24.70;76.00
4293;DHT22;2160;51.172;6.808;2023-08-01T16:37:05;24.40;76.40
4293;DHT22;2160;51.172;6.808;2023-08-01T16:39:32;24.20;78.80
4293;DHT22;2160;51.172;6.808;2023-08-01T16:41:59;23.90;80.50
4293;DHT22;2160;51.172;6.808;2023-08-01T16:44:25;24.00;82.50
4293;DHT22;2160;51.172;6.808;2023-08-01T16:46:54;24.10;84.70
4293;DHT22;2160;51.172;6.808;2023-08-01T16:49:21;24.00;83.60
4293;DHT22;2160;51.172;6.808;2023-08-01T16:51:48;23.80;85.50
4293;DHT22;2160;51.172;6.808;2023-08-01T16:54:15;23.60;86.80
4293;DHT22;2160;51.172;6.808;2023-08-01T16:56:42;23.60;88.20
4293;DHT22;2160;51.172;6.808;2023-08-01T16:59:09;23.60;89.50
4293;DHT22;2160;51.172;6.808;2023-08-01T17:01:36;23.70;89.50
4293;DHT22;2160;51.172;6.808;2023-08-01T17:04:04;23.60;90.60
4293;DHT22;2160;51.172;6.808;2023-08-01T17:06:32;23.60;91.40
4293;DHT22;2160;51.172;6.808;2023-08-01T17:08:59;23.70;90.90
4293;DHT22;2160;51.172;6.808;2023-08-01T17:11:26;23.40;91.10
4293;DHT22;2160;51.172;6.808;2023-08-01T17:13:53;23.30;90.90
4293;DHT22;2160;51.172;6.808;2023-08-01T17:16:20;23.10;90.80
4293;DHT22;2160;51.172;6.808;2023-08-01T17:18:47;22.80;89.80
4293;DHT22;2160;51.172;6.808;2023-08-01T17:21:15;22.70;90.90
4293;DHT22;2160;51.172;6.808;2023-08-01T17:23:43;22.60;91.60
4293;DHT22;2160;51.172;6.808;2023-08-01T17:26:10;22.50;91.50
4293;DHT22;2160;51.172;6.808;2023-08-01T17:28:37;22.30;92.50
4293;DHT22;2160;51.172;6.808;2023-08-01T17:31:05;22.10;92.90
4293;DHT22;2160;51.172;6.808;2023-08-01T17:33:32;21.90;94.40
4293;DHT22;2160;51.172;6.808;2023-08-01T17:35:59;22.00;96.60
4293;DHT22;2160;51.172;6.808;2023-08-01T17:38:28;22.00;97.30
4293;DHT22;2160;51.172;6.808;2023-08-01T17:40:54;22.00;97.80
4293;DHT22;2160;51.172;6.808;2023-08-01T17:43:21;22.10;99.00
4293;DHT22;2160;51.172;6.808;2023-08-01T17:45:48;22.20;99.00
4293;DHT22;2160;51.172;6.808;2023-08-01T17:48:15;22.30;99.10
4293;DHT22;2160;51.172;6.808;2023-08-01T17:50:43;22.30;99.70
4293;DHT22;2160;51.172;6.808;2023-08-01T17:53:10;22.20;99.90
4293;DHT22;2160;51.172;6.808;2023-08-01T17:55:38;22.20;99.90
4293;DHT22;2160;51.172;6.808;2023-08-01T17:58:05;22.20;99.90
4293;DHT22;2160;51.172;6.808;2023-08-01T18:00:32;22.30;99.90
4293;DHT22;2160;51.172;6.808;2023-08-01T18:02:59;22.40;99.90
4293;DHT22;2160;51.172;6.808;2023-08-01T18:05:26;22.20;99.90
4293;DHT22;2160;51.172;6.808;2023-08-01T18:07:53;22.20;99.90
4293;DHT22;2160;51.172;6.808;2023-08-01T18:10:20;21.90;99.90
4293;DHT22;2160;51.172;6.808;2023-08-01T18:12:53;21.70;99.90
4293;DHT22;2160;51.172;6.808;2023-08-01T18:15:20;21.50;99.90
4293;DHT22;2160;51.172;6.808;2023-08-01T18:17:47;21.40;99.90
4293;DHT22;2160;51.172;6.808;2023-08-01T18:20:14;21.40;99.90
4293;DHT22;2160;51.172;6.808;2023-08-01T18:22:41;21.60;99.90
4293;DHT22;2160;51.172;6.808;2023-08-01T18:25:08;21.60;99.90
4293;DHT22;2160;51.172;6.808;2023-08-01T18:27:35;21.60;99.90
4293;DHT22;2160;51.172;6.808;2023-08-01T18:30:04;21.40;99.90
4293;DHT22;2160;51.172;6.808;2023-08-01T18:32:32;21.30;99.90
4293;DHT22;2160;51.172;6.808;2023-08-01T18:34:59;21.40;99.90
4293;DHT22;2160;51.172;6.808;2023-08-01T18:37:26;21.30;99.90
4293;DHT22;2160;51.172;6.808;2023-08-01T18:39:53;21.40;99.90
4293;DHT22;2160;51.172;6.808;2023-08-01T18:42:21;21.40;99.90
4293;DHT22;2160;51.172;6.808;2023-08-01T18:44:48;21.40;99.90
4293;DHT22;2160;51.172;6.808;2023-08-01T18:47:17;21.30;99.90
4293;DHT22;2160;51.172;6.808;2023-08-01T18:49:45;21.40;99.90
4293;DHT22;2160;51.172;6.808;2023-08-01T18:52:15;21.40;99.90
4293;DHT22;2160;51.172;6.808;2023-08-01T18:54:42;21.30;99.90
4293;DHT22;2160;51.172;6.808;2023-08-01T18:57:09;21.40;99.90
4293;DHT22;2160;51.172;6.808;2023-08-01T18:59:36;21.20;99.90
4293;DHT22;2160;51.172;6.808;2023-08-01T19:02:04;21.00;99.90
4293;DHT22;2160;51.172;6.808;2023-08-01T19:04:32;20.90;99.90
4293;DHT22;2160;51.172;6.808;2023-08-01T19:06:59;21.00;99.90
4293;DHT22;2160;51.172;6.808;2023-08-01T19:09:26;21.00;99.90
4293;DHT22;2160;51.172;6.808;2023-08-01T19:11:53;20.80;99.90
4293;DHT22;2160;51.172;6.808;2023-08-01T19:14:20;20.80;99.90
4293;DHT22;2160;51.172;6.808;2023-08-01T19:16:47;20.90;99.90
4293;DHT22;2160;51.172;6.808;2023-08-01T19:19:14;20.90;99.90
4293;DHT22;2160;51.172;6.808;2023-08-01T19:21:42;20.80;99.90
4293;DHT22;2160;51.172;6.808;2023-08-01T19:24:09;20.60;99.90
4293;DHT22;2160;51.172;6.808;2023-08-01T19:26:36;20.70;99.90
4293;DHT22;2160;51.172;6.808;2023-08-01T19:29:04;20.80;99.90
4293;DHT22;2160;51.172;6.808;2023-08-01T19:31:30;20.70;99.90
4293;DHT22;2160;51.172;6.808;2023-08-01T19:33:58;20.50;99.90
4293;DHT22;2160;51.172;6.808;2023-08-01T19:36:25;20.40;99.90
4293;DHT22;2160;51.172;6.808;2023-08-01T19:38:53;20.40;99.90
4293;DHT22;2160;51.172;6.808;2023-08-01T19:41:20;20.30;99.90
4293;DHT22;2160;51.172;6.808;2023-08-01T19:43:47;20.20;99.90
4293;DHT22;2160;51.172;6.808;2023-08-01T19:46:15;20.00;99.90
4293;DHT22;2160;51.172;6.808;2023-08-01T19:48:43;20.10;99.90
4293;DHT22;2160;51.172;6.808;2023-08-01T19:51:11;19.90;99.90
4293;DHT22;2160;51.172;6.808;2023-08-01T19:53:38;20.00;99.90
4293;DHT22;2160;51.172;6.808;2023-08-01T19:56:06;20.00;99.90
4293;DHT22;2160;51.172;6.808;2023-08-01T19:58:33;20.00;99.90
4293;DHT22;2160;51.172;6.808;2023-08-01T20:01:00;19.80;99.90
4293;DHT22;2160;51.172;6.808;2023-08-01T20:03:31;19.90;99.90
4293;DHT22;2160;51.172;6.808;2023-08-01T20:05:58;20.00;99.90